Time,TemperatureF,DewpointF,PressureIn,WindDirection,WindDirectionDegrees,WindSpeedMPH,WindSpeedGustMPH,Humidity,HourlyPrecipIn,Conditions,Clouds,dailyrainin,SolarRadiationWatts/m^2,SoftwareType,DateUTC
2013-07-03 00:02:00,70.0,54.0,-100.00,WSW,240,4.0,7.0,56,-99.99,,,0.00,0.120000,,2013-07-03 06:02:00,
2013-07-03 00:12:00,70.0,54.0,-100.00,WSW,240,4.0,7.0,56,-99.99,,,0.00,0.120000,,2013-07-03 06:12:00,
2013-07-03 00:46:00,68.0,54.0,-100.00,WSW,241,4.0,7.0,60,-99.99,,,0.00,0.120000,,2013-07-03 06:46:00,
2013-07-03 00:57:00,68.0,54.0,-100.00,WSW,241,4.0,7.0,60,-99.99,,,0.00,0.120000,,2013-07-03 06:57:00,
2013-07-03 01:04:00,68.0,54.0,-100.00,WSW,241,4.0,7.0,60,-99.99,,,0.00,0.120000,,2013-07-03 07:04:00,
2013-07-03 01:12:00,68.0,54.0,-100.00,WSW,241,4.0,7.0,60,-99.99,,,0.00,0.120000,,2013-07-03 07:12:00,
2013-07-03 01:45:00,67.0,55.0,-100.00,South,187,1.0,3.0,64,-99.99,,,0.00,0.120000,,2013-07-03 07:45:00,
2013-07-03 01:59:00,67.0,55.0,-100.00,South,187,1.0,3.0,64,-99.99,,,0.00,0.120000,,2013-07-03 07:59:00,
2013-07-03 02:13:00,67.0,55.0,-100.00,South,187,1.0,3.0,64,-99.99,,,0.00,0.120000,,2013-07-03 08:13:00,
2013-07-03 02:44:00,65.0,54.0,-100.00,SSE,159,3.0,7.0,68,-99.99,,,0.00,0.120000,,2013-07-03 08:44:00,
2013-07-03 02:56:00,65.0,54.0,-100.00,SSE,159,3.0,7.0,68,-99.99,,,0.00,0.120000,,2013-07-03 08:56:00,
2013-07-03 03:02:00,65.0,54.0,-100.00,SSE,159,3.0,7.0,68,-99.99,,,0.00,0.120000,,2013-07-03 09:02:00,
2013-07-03 03:13:00,65.0,54.0,-100.00,SSE,159,3.0,7.0,68,-99.99,,,0.00,0.120000,,2013-07-03 09:13:00,
2013-07-03 03:45:00,62.0,53.0,-100.00,WSW,243,3.0,6.0,72,-99.99,,,0.00,0.120000,,2013-07-03 09:45:00,
2013-07-03 03:57:00,62.0,53.0,-100.00,WSW,243,3.0,6.0,72,-99.99,,,0.00,0.120000,,2013-07-03 09:57:00,
2013-07-03 04:03:00,62.0,53.0,-100.00,WSW,243,3.0,6.0,72,-99.99,,,0.00,0.120000,,2013-07-03 10:03:00,
2013-07-03 04:13:00,62.0,53.0,-100.00,WSW,243,3.0,6.0,72,-99.99,,,0.00,0.120000,,2013-07-03 10:13:00,
2013-07-03 04:43:00,60.0,52.0,-100.00,NE,34,2.0,6.0,75,-99.99,,,0.00,0.120000,,2013-07-03 10:43:00,
2013-07-03 04:55:00,60.0,52.0,-100.00,NE,34,2.0,6.0,75,-99.99,,,0.00,0.120000,,2013-07-03 10:55:00,
2013-07-03 05:03:00,60.0,52.0,-100.00,NE,34,2.0,6.0,75,-99.99,,,0.00,0.120000,,2013-07-03 11:03:00,
2013-07-03 05:12:00,60.0,52.0,-100.00,NE,34,2.0,6.0,75,-99.99,,,0.00,0.120000,,2013-07-03 11:12:00,
2013-07-03 05:43:00,63.0,52.0,-100.00,SE,131,3.0,6.0,67,-99.99,,,0.00,0.230000,,2013-07-03 11:43:00,
2013-07-03 06:04:00,63.0,52.0,-100.00,SE,131,3.0,6.0,67,-99.99,,,0.00,0.230000,,2013-07-03 12:04:00,
2013-07-03 06:12:00,63.0,52.0,-100.00,SE,131,3.0,6.0,67,-99.99,,,0.00,0.230000,,2013-07-03 12:12:00,
2013-07-03 06:43:00,59.0,52.0,-100.00,WSW,251,2.0,5.0,80,-99.99,,,0.00,24.520000,,2013-07-03 12:43:00,
2013-07-03 06:58:00,59.0,52.0,-100.00,WSW,251,2.0,5.0,80,-99.99,,,0.00,24.520000,,2013-07-03 12:58:00,
2013-07-03 07:13:00,59.0,52.0,-100.00,WSW,251,2.0,5.0,80,-99.99,,,0.00,24.520000,,2013-07-03 13:13:00,
2013-07-03 07:55:00,59.0,54.0,-100.00,SSE,165,3.0,5.0,81,-99.99,,,0.00,42.070000,,2013-07-03 13:55:00,
2013-07-03 08:04:00,59.0,54.0,-100.00,SSE,165,3.0,5.0,81,-99.99,,,0.00,42.070000,,2013-07-03 14:04:00,
2013-07-03 08:12:00,59.0,54.0,-100.00,SSE,165,3.0,5.0,81,-99.99,,,0.00,42.070000,,2013-07-03 14:12:00,
2013-07-03 08:45:00,68.0,56.0,-100.00,SE,136,2.0,5.0,64,-99.99,,,0.00,245.570007,,2013-07-03 14:45:00,
2013-07-03 08:54:00,68.0,56.0,-100.00,SE,136,2.0,5.0,64,-99.99,,,0.00,245.570007,,2013-07-03 14:54:00,
2013-07-03 09:02:00,68.0,56.0,-100.00,SE,136,2.0,5.0,64,-99.99,,,0.00,245.570007,,2013-07-03 15:02:00,
2013-07-03 09:13:00,68.0,56.0,-100.00,SE,136,2.0,5.0,64,-99.99,,,0.00,245.570007,,2013-07-03 15:13:00,
2013-07-03 09:45:00,73.0,57.0,-100.00,ENE,67,3.0,9.0,56,-99.99,,,0.00,368.070007,,2013-07-03 15:45:00,
2013-07-03 09:57:00,73.0,57.0,-100.00,ENE,67,3.0,9.0,56,-99.99,,,0.00,368.070007,,2013-07-03 15:57:00,
2013-07-03 10:04:00,73.0,57.0,-100.00,ENE,67,3.0,9.0,56,-99.99,,,0.00,368.070007,,2013-07-03 16:04:00,
2013-07-03 10:12:00,73.0,57.0,-100.00,ENE,67,3.0,9.0,56,-99.99,,,0.00,368.070007,,2013-07-03 16:12:00,
2013-07-03 12:44:00,85.0,53.0,-100.00,NNE,20,9.0,14.0,33,-99.99,,,0.00,862.349976,,2013-07-03 18:44:00,
2013-07-03 13:13:00,85.0,53.0,-100.00,NNE,20,9.0,14.0,33,-99.99,,,0.00,862.349976,,2013-07-03 19:13:00,
2013-07-03 13:44:00,83.0,54.0,-100.00,NNE,21,8.0,14.0,37,-99.99,,,0.00,337.149994,,2013-07-03 19:44:00,
2013-07-03 13:57:00,83.0,54.0,-100.00,NNE,21,8.0,14.0,37,-99.99,,,0.00,337.149994,,2013-07-03 19:57:00,
2013-07-03 14:02:00,83.0,54.0,-100.00,NNE,21,8.0,14.0,37,-99.99,,,0.00,337.149994,,2013-07-03 20:02:00,
2013-07-03 14:12:00,83.0,54.0,-100.00,NNE,21,8.0,14.0,37,-99.99,,,0.00,337.149994,,2013-07-03 20:12:00,
2013-07-03 14:43:00,88.0,51.0,-100.00,NE,52,10.0,16.0,28,-99.99,,,0.00,857.700012,,2013-07-03 20:43:00,
2013-07-03 14:55:00,88.0,51.0,-100.00,NE,52,10.0,16.0,28,-99.99,,,0.00,857.700012,,2013-07-03 20:55:00,
2013-07-03 15:04:00,88.0,51.0,-100.00,NE,52,10.0,16.0,28,-99.99,,,0.00,857.700012,,2013-07-03 21:04:00,
2013-07-03 15:11:00,88.0,51.0,-100.00,NE,52,10.0,16.0,28,-99.99,,,0.00,857.700012,,2013-07-03 21:11:00,
2013-07-03 16:02:00,90.0,41.0,-100.00,West,264,10.0,18.0,18,-99.99,,,0.00,780.179993,,2013-07-03 22:02:00,
2013-07-03 16:12:00,90.0,41.0,-100.00,West,264,10.0,18.0,18,-99.99,,,0.00,780.179993,,2013-07-03 22:12:00,
2013-07-03 16:44:00,90.0,40.0,-100.00,NNW,343,8.0,15.0,17,-99.99,,,0.00,824.000000,,2013-07-03 22:44:00,
2013-07-03 16:56:00,90.0,40.0,-100.00,NNW,343,8.0,15.0,17,-99.99,,,0.00,824.000000,,2013-07-03 22:56:00,
2013-07-03 17:02:00,90.0,40.0,-100.00,NNW,343,8.0,15.0,17,-99.99,,,0.00,824.000000,,2013-07-03 23:02:00,
2013-07-03 17:13:00,90.0,40.0,-100.00,NNW,343,8.0,15.0,17,-99.99,,,0.00,824.000000,,2013-07-03 23:13:00,
2013-07-03 17:43:00,88.0,43.0,-100.00,NNW,345,10.0,22.0,20,-99.99,,,-99.99,265.209991,,2013-07-03 23:43:00,
2013-07-03 17:56:00,88.0,43.0,-100.00,NNW,345,10.0,22.0,20,-99.99,,,-99.99,265.209991,,2013-07-03 23:56:00,
2013-07-03 18:02:00,88.0,43.0,-100.00,NNW,345,10.0,22.0,20,-99.99,,,-99.99,265.209991,,2013-07-04 00:02:00,
2013-07-03 18:12:00,88.0,43.0,-100.00,NNW,345,10.0,22.0,20,-99.99,,,-99.99,265.209991,,2013-07-04 00:12:00,
2013-07-03 18:45:00,88.0,43.0,-100.00,North,354,15.0,23.0,20,-99.99,,,-99.99,239.529999,,2013-07-04 00:45:00,
2013-07-03 18:57:00,88.0,43.0,-100.00,North,354,15.0,23.0,20,-99.99,,,-99.99,239.529999,,2013-07-04 00:57:00,
2013-07-03 19:03:00,88.0,43.0,-100.00,North,354,15.0,23.0,20,-99.99,,,-99.99,239.529999,,2013-07-04 01:03:00,
2013-07-03 19:43:00,87.0,44.0,-100.00,North,350,12.0,18.0,22,-99.99,,,0.00,311.700012,,2013-07-04 01:43:00,
2013-07-03 19:54:00,87.0,44.0,-100.00,North,350,12.0,18.0,22,-99.99,,,0.00,311.700012,,2013-07-04 01:54:00,
2013-07-03 20:03:00,87.0,44.0,-100.00,North,350,12.0,18.0,22,-99.99,,,0.00,311.700012,,2013-07-04 02:03:00,
2013-07-03 20:12:00,87.0,44.0,-100.00,North,350,12.0,18.0,22,-99.99,,,0.00,311.700012,,2013-07-04 02:12:00,
2013-07-03 20:45:00,83.0,45.0,-100.00,North,351,9.0,13.0,26,-99.99,,,0.00,147.020004,,2013-07-04 02:45:00,
2013-07-03 20:56:00,83.0,45.0,-100.00,North,351,9.0,13.0,26,-99.99,,,0.00,147.020004,,2013-07-04 02:56:00,
2013-07-03 21:03:00,83.0,45.0,-100.00,North,351,9.0,13.0,26,-99.99,,,0.00,147.020004,,2013-07-04 03:03:00,
2013-07-03 21:12:00,83.0,45.0,-100.00,North,351,9.0,13.0,26,-99.99,,,0.00,147.020004,,2013-07-04 03:12:00,
2013-07-03 21:45:00,77.0,45.0,-100.00,NW,325,6.0,9.0,31,-99.99,,,0.00,16.040001,,2013-07-04 03:45:00,
2013-07-03 21:57:00,77.0,45.0,-100.00,NW,325,6.0,9.0,31,-99.99,,,0.00,16.040001,,2013-07-04 03:57:00,
2013-07-03 22:01:00,77.0,45.0,-100.00,NW,325,6.0,9.0,31,-99.99,,,0.00,16.040001,,2013-07-04 04:01:00,
2013-07-03 22:11:00,77.0,45.0,-100.00,NW,325,6.0,9.0,31,-99.99,,,0.00,16.040001,,2013-07-04 04:11:00,
2013-07-03 22:43:00,72.0,44.0,-100.00,East,79,2.0,5.0,37,-99.99,,,0.00,0.230000,,2013-07-04 04:43:00,
2013-07-03 22:52:00,72.0,44.0,-100.00,East,79,2.0,5.0,37,-99.99,,,0.00,0.230000,,2013-07-04 04:52:00,
2013-07-03 23:01:00,72.0,44.0,-100.00,East,79,2.0,5.0,37,-99.99,,,0.00,0.230000,,2013-07-04 05:01:00,
2013-07-03 23:12:00,72.0,44.0,-100.00,East,79,2.0,5.0,37,-99.99,,,0.00,0.230000,,2013-07-04 05:12:00,
2013-07-03 23:43:00,74.0,43.0,-100.00,North,352,4.0,9.0,32,-99.99,,,0.00,0.120000,,2013-07-04 05:43:00,
2013-07-03 23:52:00,74.0,43.0,-100.00,North,352,4.0,9.0,32,-99.99,,,0.00,0.120000,,2013-07-04 05:52:00,